Time;durP1;ratioP1;P1;durP2;ratioP2;P2;SDS_P1;SDS_P2;PMS_P1;PMS_P2;Temp;Humidity;BMP_temperature;BMP_pressure;BME280_temperature;BME280_humidity;BME280_pressure;Samples;Min_cycle;Max_cycle;Signal;HPM_P1;HPM_P2
2022/07/10 00:00:31;;;;;;;10.63;1.67;;;13.50;99.90;;;;;;4989881;28;20019;-57
2022/07/10 00:02:57;;;;;;;9.63;1.70;;;13.50;99.90;;;;;;4994510;28;20392;-54
2022/07/10 00:05:23;;;;;;;7.30;1.50;;;13.40;99.90;;;;;;4994557;28;20030;-57
2022/07/10 00:07:50;;;;;;;9.18;1.65;;;13.40;99.90;;;;;;4994122;28;20049;-57
2022/07/10 00:10:18;;;;;;;6.45;1.75;;;13.40;99.90;;;;;;4992051;28;20030;-58
2022/07/10 00:12:44;;;;;;;5.97;1.38;;;13.30;99.90;;;;;;4988010;28;20037;-56
2022/07/10 00:15:11;;;;;;;4.60;1.55;;;13.30;99.90;;;;;;4992038;28;20034;-59
2022/07/10 00:17:39;;;;;;;5.60;1.50;;;13.30;99.90;;;;;;4986264;28;20061;-57
2022/07/10 00:20:06;;;;;;;9.45;1.92;;;13.30;99.90;;;;;;4994092;28;20035;-54
2022/07/10 00:22:34;;;;;;;5.32;1.40;;;13.20;99.90;;;;;;4993590;28;20433;-54
2022/07/10 00:25:03;;;;;;;11.40;1.70;;;13.20;99.90;;;;;;4981626;28;20038;-54
2022/07/10 00:27:29;;;;;;;8.43;1.50;;;13.20;99.90;;;;;;4983631;28;20105;-54
2022/07/10 00:29:54;;;;;;;8.02;2.08;;;13.20;99.90;;;;;;4992872;28;20082;-59
2022/07/10 00:32:20;;;;;;;10.77;1.73;;;13.10;99.90;;;;;;4993611;28;20042;-58
2022/07/10 00:34:45;;;;;;;12.40;2.75;;;13.10;99.90;;;;;;4988177;28;20444;-57
2022/07/10 00:37:11;;;;;;;6.63;1.48;;;13.00;99.90;;;;;;4995464;28;20026;-57
2022/07/10 00:39:37;;;;;;;4.88;1.48;;;13.10;99.90;;;;;;4976487;28;20090;-57
2022/07/10 00:42:07;;;;;;;8.05;2.20;;;13.00;99.90;;;;;;4991473;28;20040;-56
2022/07/10 00:44:33;;;;;;;10.30;1.80;;;13.00;99.90;;;;;;4977511;28;20026;-59
2022/07/10 00:46:59;;;;;;;6.63;1.30;;;13.00;99.90;;;;;;4987360;28;20027;-59
2022/07/10 00:49:25;;;;;;;6.05;1.50;;;12.90;99.90;;;;;;4993372;28;20049;-56
2022/07/10 00:51:50;;;;;;;6.35;1.65;;;12.90;99.90;;;;;;4994846;28;20507;-58
2022/07/10 00:54:16;;;;;;;8.68;2.38;;;12.80;99.90;;;;;;4990039;28;20080;-58
2022/07/10 00:56:42;;;;;;;4.90;1.67;;;12.80;99.90;;;;;;4991117;28;20034;-60
2022/07/10 00:59:09;;;;;;;3.63;1.40;;;12.80;99.90;;;;;;4981647;28;20035;-58
2022/07/10 01:01:36;;;;;;;6.55;1.60;;;12.70;99.90;;;;;;4986685;28;20057;-58
2022/07/10 01:04:02;;;;;;;5.32;1.58;;;12.60;99.90;;;;;;4982905;28;20019;-61
2022/07/10 01:06:27;;;;;;;4.05;1.55;;;12.60;99.90;;;;;;4986380;28;20468;-60
2022/07/10 01:08:53;;;;;;;7.47;1.63;;;12.50;99.90;;;;;;4987338;28;20033;-59
2022/07/10 01:11:21;;;;;;;10.38;1.67;;;12.50;99.90;;;;;;4982489;28;20392;-59
2022/07/10 01:13:46;;;;;;;8.27;1.67;;;12.40;99.90;;;;;;4986817;28;20053;-60
2022/07/10 01:16:12;;;;;;;6.03;1.70;;;12.40;99.90;;;;;;4984237;28;20468;-60
2022/07/10 01:18:38;;;;;;;6.90;1.38;;;12.30;99.90;;;;;;4989297;28;20500;-59
2022/07/10 01:21:04;;;;;;;6.03;2.08;;;12.30;99.90;;;;;;4992504;28;20025;-60
2022/07/10 01:23:30;;;;;;;5.57;1.67;;;12.30;99.90;;;;;;4991723;28;20018;-59
2022/07/10 01:25:56;;;;;;;7.25;1.30;;;12.30;99.90;;;;;;4991460;28;20038;-57
2022/07/10 01:28:22;;;;;;;8.40;1.75;;;12.30;99.90;;;;;;4992495;28;20069;-59
2022/07/10 01:30:48;;;;;;;3.00;1.17;;;12.30;99.90;;;;;;4986224;28;20049;-59
2022/07/10 01:33:14;;;;;;;6.35;1.48;;;12.20;99.90;;;;;;4991140;28;20015;-59
2022/07/10 01:35:40;;;;;;;11.00;2.42;;;12.20;99.90;;;;;;4990512;28;20029;-57
2022/07/10 01:38:06;;;;;;;6.90;1.40;;;12.20;99.90;;;;;;4986427;28;20030;-60
2022/07/10 01:40:32;;;;;;;7.63;1.38;;;12.20;99.90;;;;;;4993459;28;20030;-55
2022/07/10 01:42:58;;;;;;;5.25;1.75;;;12.10;99.90;;;;;;4993182;28;20029;-56
2022/07/10 01:45:24;;;;;;;7.18;1.30;;;12.10;99.90;;;;;;4982499;28;20030;-57
2022/07/10 01:47:50;;;;;;;7.88;1.60;;;12.10;99.90;;;;;;4980601;28;20034;-59
2022/07/10 01:50:15;;;;;;;5.65;1.25;;;12.10;99.90;;;;;;4989992;28;20035;-59
2022/07/10 01:52:41;;;;;;;5.88;1.17;;;12.10;99.90;;;;;;4991193;28;20046;-59
2022/07/10 01:55:07;;;;;;;4.63;1.48;;;12.10;99.90;;;;;;4985821;28;20054;-60
2022/07/10 01:57:33;;;;;;;5.82;1.88;;;12.10;99.90;;;;;;4990460;28;20379;-55
2022/07/10 01:59:59;;;;;;;7.85;1.65;;;12.00;99.90;;;;;;4988683;28;20034;-56
2022/07/10 02:02:25;;;;;;;6.32;2.05;;;12.00;99.90;;;;;;4991418;28;20022;-58
2022/07/10 02:04:51;;;;;;;10.43;1.55;;;11.90;99.90;;;;;;4989207;28;20024;-58
2022/07/10 02:07:18;;;;;;;6.15;1.30;;;11.90;99.90;;;;;;4983765;28;20019;-59
2022/07/10 02:09:45;;;;;;;6.22;1.40;;;11.90;99.90;;;;;;4991072;28;20034;-58
2022/07/10 02:12:13;;;;;;;8.95;1.30;;;11.90;99.90;;;;;;4990213;28;20029;-57
2022/07/10 02:14:40;;;;;;;9.30;1.52;;;11.90;99.90;;;;;;4983674;28;20026;-52
2022/07/10 02:17:06;;;;;;;8.00;1.70;;;11.90;99.90;;;;;;4988672;28;20077;-59
2022/07/10 02:19:32;;;;;;;7.82;1.85;;;11.80;99.90;;;;;;4991822;28;20057;-59
2022/07/10 02:21:58;;;;;;;7.72;1.77;;;11.80;99.90;;;;;;4990329;28;20114;-57
2022/07/10 02:24:24;;;;;;;6.18;1.50;;;11.90;99.90;;;;;;4991649;28;20416;-57
2022/07/10 02:26:50;;;;;;;11.02;1.80;;;11.90;99.90;;;;;;4988111;28;20075;-60
2022/07/10 02:29:15;;;;;;;8.02;1.75;;;12.00;99.90;;;;;;4992816;28;20026;-59
2022/07/10 02:31:41;;;;;;;10.27;1.50;;;12.00;99.90;;;;;;4989222;28;20026;-57
2022/07/10 02:34:08;;;;;;;6.65;1.52;;;12.10;99.90;;;;;;4990006;28;20109;-56
2022/07/10 02:36:34;;;;;;;4.63;1.25;;;12.20;99.90;;;;;;4992522;28;20018;-59
2022/07/10 02:39:00;;;;;;;6.05;1.30;;;12.20;99.90;;;;;;4988506;28;20038;-60
2022/07/10 02:41:26;;;;;;;7.13;1.40;;;12.30;99.90;;;;;;4989795;28;20025;-58
2022/07/10 02:43:52;;;;;;;14.88;2.13;;;12.30;99.90;;;;;;4973436;28;20027;-59
2022/07/10 02:46:17;;;;;;;10.82;1.80;;;12.30;99.90;;;;;;4988523;28;20022;-58
2022/07/10 02:48:43;;;;;;;8.77;1.13;;;12.30;99.90;;;;;;4990357;28;20408;-59
2022/07/10 02:51:08;;;;;;;8.15;1.60;;;12.20;99.90;;;;;;4988940;28;20085;-60
2022/07/10 02:53:34;;;;;;;5.43;2.00;;;12.20;99.90;;;;;;4989037;28;20030;-56
2022/07/10 02:56:00;;;;;;;14.40;1.95;;;12.20;99.90;;;;;;4989645;28;20030;-58
2022/07/10 02:58:26;;;;;;;5.97;2.55;;;12.30;99.90;;;;;;4989322;28;20033;-59
2022/07/10 03:00:52;;;;;;;8.77;2.40;;;12.30;99.90;;;;;;4987415;28;20014;-59
2022/07/10 03:03:17;;;;;;;6.25;1.20;;;12.40;99.90;;;;;;4987592;28;20026;-60
2022/07/10 03:05:45;;;;;;;7.10;1.30;;;12.40;99.90;;;;;;4989211;28;20022;-58
2022/07/10 03:08:11;;;;;;;2.28;1.30;;;12.40;99.90;;;;;;4990840;28;20041;-57
2022/07/10 03:10:36;;;;;;;7.13;1.40;;;12.50;99.90;;;;;;4985047;28;20094;-59
2022/07/10 03:13:02;;;;;;;6.40;1.40;;;12.50;99.90;;;;;;4990870;28;20022;-57
2022/07/10 03:15:28;;;;;;;8.98;1.20;;;12.50;99.90;;;;;;4989518;28;20022;-58
2022/07/10 03:17:53;;;;;;;8.68;1.50;;;12.50;99.90;;;;;;4990390;28;20105;-57
2022/07/10 03:20:19;;;;;;;4.82;1.45;;;12.50;99.90;;;;;;4990867;28;20057;-58
2022/07/10 03:22:45;;;;;;;5.20;1.38;;;12.60;99.90;;;;;;4989920;28;20023;-57
2022/07/10 03:25:10;;;;;;;10.32;2.00;;;12.60;99.90;;;;;;4990004;28;20057;-59
2022/07/10 03:27:36;;;;;;;5.63;1.80;;;12.60;99.90;;;;;;4989145;28;20042;-57
2022/07/10 03:30:03;;;;;;;7.28;2.33;;;12.70;99.90;;;;;;4988319;28;20095;-58
2022/07/10 03:32:29;;;;;;;5.57;1.27;;;12.70;99.90;;;;;;4990129;28;20015;-58
2022/07/10 03:34:55;;;;;;;5.40;1.13;;;12.70;99.90;;;;;;4985377;28;20502;-57
2022/07/10 03:37:20;;;;;;;8.35;1.23;;;12.80;99.90;;;;;;4991274;28;20030;-53
2022/07/10 03:39:46;;;;;;;6.32;1.50;;;12.70;99.90;;;;;;4987711;28;20042;-58
2022/07/10 03:42:11;;;;;;;5.40;1.30;;;12.80;99.90;;;;;;4987754;28;20028;-59
2022/07/10 03:44:37;;;;;;;4.55;1.25;;;12.80;99.90;;;;;;4990158;28;20022;-58
2022/07/10 03:47:03;;;;;;;11.02;1.35;;;12.80;99.90;;;;;;4986445;28;20082;-56
2022/07/10 03:49:29;;;;;;;6.47;1.63;;;12.80;99.90;;;;;;4990357;28;20027;-57
2022/07/10 03:51:59;;;;;;;6.70;1.40;;;12.90;99.90;;;;;;4990183;28;20380;-58
2022/07/10 03:54:25;;;;;;;6.55;1.90;;;12.90;99.90;;;;;;4984759;28;20026;-56
2022/07/10 03:59:35;;;;;;;;;;;13.00;99.90;;;;;;4989059;28;20093;-58
2022/07/10 04:02:00;;;;;;;7.82;1.55;;;13.00;99.90;;;;;;4983973;28;19913;-58
2022/07/10 04:04:26;;;;;;;6.40;0.98;;;13.00;99.90;;;;;;4988436;28;20029;-57
2022/07/10 04:06:52;;;;;;;5.70;1.20;;;13.00;99.90;;;;;;4988169;28;20018;-57
2022/07/10 04:09:17;;;;;;;5.72;1.40;;;13.10;99.90;;;;;;4984344;28;20030;-58
2022/07/10 04:11:43;;;;;;;4.55;1.17;;;13.20;99.90;;;;;;4987978;28;20029;-58
2022/07/10 04:14:08;;;;;;;11.23;2.53;;;13.20;99.90;;;;;;4988406;28;20455;-57
2022/07/10 04:16:34;;;;;;;7.82;1.10;;;13.10;99.90;;;;;;4994191;28;20106;-59
2022/07/10 04:18:59;;;;;;;14.35;3.30;;;13.20;99.90;;;;;;4993904;28;20022;-59
2022/07/10 04:21:25;;;;;;;7.57;1.35;;;13.20;99.90;;;;;;4992839;28;20443;-60
2022/07/10 04:23:51;;;;;;;7.40;1.27;;;13.20;99.90;;;;;;4992859;28;20098;-56
2022/07/10 04:26:16;;;;;;;10.00;1.98;;;13.30;99.90;;;;;;4993514;28;20027;-57
2022/07/10 04:28:42;;;;;;;7.20;2.38;;;13.30;99.90;;;;;;4987413;28;20468;-59
2022/07/10 04:31:07;;;;;;;9.27;1.48;;;13.40;99.90;;;;;;4990025;28;20468;-59
2022/07/10 04:33:34;;;;;;;7.45;1.30;;;13.60;99.90;;;;;;4993984;28;20041;-60
2022/07/10 04:35:59;;;;;;;6.63;1.30;;;13.70;99.90;;;;;;4989493;28;20066;-59
2022/07/10 04:38:25;;;;;;;4.93;1.10;;;13.80;99.90;;;;;;4994591;28;20069;-60
2022/07/10 04:40:51;;;;;;;7.82;1.30;;;14.20;99.90;;;;;;4990347;28;20038;-60
2022/07/10 04:43:16;;;;;;;7.72;1.13;;;14.80;99.90;;;;;;4992482;28;20025;-58
2022/07/10 04:45:42;;;;;;;7.55;1.55;;;15.50;99.90;;;;;;4986449;28;20694;-59
2022/07/10 04:48:08;;;;;;;6.68;1.80;;;16.00;99.90;;;;;;4986813;28;20084;-58
2022/07/10 04:50:33;;;;;;;7.30;1.48;;;16.30;99.90;;;;;;4988403;28;20049;-59
2022/07/10 04:52:59;;;;;;;4.10;1.50;;;17.10;99.90;;;;;;4992778;28;20031;-59
2022/07/10 04:55:25;;;;;;;5.63;1.42;;;17.30;99.50;;;;;;4990854;28;20035;-57
2022/07/10 04:57:50;;;;;;;8.20;2.13;;;17.50;99.60;;;;;;4981056;28;20023;-59
2022/07/10 05:00:16;;;;;;;4.55;1.73;;;17.60;99.10;;;;;;4991106;28;20026;-61
2022/07/10 05:02:42;;;;;;;6.70;1.58;;;17.10;99.10;;;;;;4988807;28;20099;-57
2022/07/10 05:05:08;;;;;;;5.78;1.40;;;16.70;99.90;;;;;;4989281;28;20119;-60
2022/07/10 05:07:34;;;;;;;4.15;1.63;;;16.50;99.90;;;;;;4987355;28;20447;-60
2022/07/10 05:09:59;;;;;;;6.63;1.98;;;16.20;99.90;;;;;;4987866;28;20066;-59
2022/07/10 05:12:25;;;;;;;8.90;1.63;;;16.00;99.90;;;;;;4984323;28;20546;-60
2022/07/10 05:14:51;;;;;;;5.82;1.80;;;15.90;99.90;;;;;;4991282;28;20101;-60
2022/07/10 05:17:17;;;;;;;7.72;2.08;;;15.90;99.90;;;;;;4986784;28;20053;-58
2022/07/10 05:19:42;;;;;;;8.90;2.13;;;15.90;99.90;;;;;;4992331;28;20022;-60
2022/07/10 05:22:09;;;;;;;7.05;1.60;;;15.90;99.90;;;;;;4993539;28;20026;-60
2022/07/10 05:24:35;;;;;;;8.88;2.30;;;15.90;99.90;;;;;;4991292;28;20026;-60
2022/07/10 05:27:00;;;;;;;5.93;2.03;;;16.00;99.90;;;;;;4986436;28;20041;-58
2022/07/10 05:29:26;;;;;;;8.52;2.00;;;16.10;99.90;;;;;;4990894;28;20522;-58
2022/07/10 05:31:52;;;;;;;9.80;1.75;;;16.20;99.90;;;;;;4991768;28;20026;-61
2022/07/10 05:34:17;;;;;;;10.93;2.75;;;16.70;99.90;;;;;;4992529;28;20027;-60
2022/07/10 05:36:43;;;;;;;10.13;2.15;;;17.70;99.90;;;;;;4979671;28;20109;-60
2022/07/10 05:39:08;;;;;;;6.35;1.73;;;18.30;98.60;;;;;;4992491;28;20419;-58
2022/07/10 05:41:34;;;;;;;7.05;1.75;;;19.10;97.30;;;;;;4991671;28;20025;-59
2022/07/10 05:44:00;;;;;;;8.75;1.85;;;19.80;94.70;;;;;;4990470;28;20546;-61
2022/07/10 05:46:26;;;;;;;7.47;1.70;;;20.20;93.40;;;;;;4987716;28;20034;-61
2022/07/10 05:48:51;;;;;;;11.40;1.90;;;19.50;93.60;;;;;;4987114;28;20064;-60
2022/07/10 05:51:17;;;;;;;7.35;2.25;;;19.30;94.70;;;;;;4981046;28;20042;-57
2022/07/10 05:53:43;;;;;;;9.65;2.33;;;19.20;94.70;;;;;;4991284;28;20023;-56
2022/07/10 05:56:08;;;;;;;4.85;1.70;;;18.80;95.20;;;;;;4989706;28;20038;-61
2022/07/10 05:58:34;;;;;;;7.07;1.85;;;18.80;95.70;;;;;;4991614;28;20573;-58
2022/07/10 06:01:00;;;;;;;8.15;1.65;;;19.30;95.60;;;;;;4987481;28;20027;-57
2022/07/10 06:03:26;;;;;;;10.50;1.52;;;20.50;94.60;;;;;;4990413;28;20061;-59
2022/07/10 06:05:51;;;;;;;8.93;1.60;;;21.80;90.90;;;;;;4984777;28;20126;-59
2022/07/10 06:08:18;;;;;;;5.15;1.50;;;22.70;89.60;;;;;;4985633;28;20027;-60
2022/07/10 06:10:46;;;;;;;8.90;2.20;;;24.50;84.90;;;;;;4989366;28;20100;-58
2022/07/10 06:13:12;;;;;;;5.22;1.60;;;25.40;82.10;;;;;;4992146;28;20019;-60
2022/07/10 06:15:38;;;;;;;5.85;1.58;;;25.90;76.40;;;;;;4989546;28;20021;-58
2022/07/10 06:18:04;;;;;;;7.68;1.63;;;25.40;75.70;;;;;;4992414;28;20020;-60
2022/07/10 06:20:31;;;;;;;7.00;1.85;;;26.00;74.30;;;;;;4990758;28;20468;-61
2022/07/10 06:22:57;;;;;;;8.20;1.80;;;26.00;72.30;;;;;;4991164;28;20077;-60
2022/07/10 06:25:23;;;;;;;6.03;1.30;;;26.30;71.10;;;;;;4985211;28;20101;-60
2022/07/10 06:27:49;;;;;;;7.28;1.88;;;27.50;69.70;;;;;;4986387;28;20149;-60
2022/07/10 06:30:15;;;;;;;4.30;1.60;;;27.60;68.80;;;;;;4987206;28;20022;-61
2022/07/10 06:32:41;;;;;;;7.90;1.77;;;26.40;67.60;;;;;;4990585;28;20022;-61
2022/07/10 06:35:07;;;;;;;5.38;1.65;;;25.90;69.50;;;;;;4990823;28;20475;-57
2022/07/10 06:37:33;;;;;;;5.88;1.65;;;25.10;71.20;;;;;;4988389;28;20024;-59
2022/07/10 06:39:59;;;;;;;7.85;1.65;;;25.10;71.50;;;;;;4989702;23;20487;-57
2022/07/10 06:42:25;;;;;;;11.50;1.88;;;24.80;72.10;;;;;;4970963;28;20050;-58
2022/07/10 06:44:51;;;;;;;4.85;1.48;;;23.90;73.50;;;;;;4964182;28;20395;-59
2022/07/10 06:50:07;;;;;;;7.95;2.08;;;23.20;74.90;;;;;;4970823;28;20029;-58
2022/07/10 06:52:33;;;;;;;8.85;1.67;;;24.20;73.10;;;;;;4973012;28;20054;-58
2022/07/10 06:55:00;;;;;;;4.53;1.50;;;22.80;74.70;;;;;;4971482;28;20069;-58
2022/07/10 06:57:25;;;;;;;10.23;2.42;;;22.80;77.20;;;;;;4972636;28;20082;-58
2022/07/10 06:59:52;;;;;;;10.75;2.08;;;21.90;76.80;;;;;;4967333;28;20030;-58
2022/07/10 07:02:18;;;;;;;6.68;1.65;;;20.50;80.90;;;;;;4975906;28;20432;-58
2022/07/10 07:04:46;;;;;;;6.95;1.95;;;20.60;81.90;;;;;;4971595;28;20015;-59
2022/07/10 07:07:15;;;;;;;6.80;2.00;;;20.30;82.40;;;;;;4990455;28;20031;-58
2022/07/10 07:09:42;;;;;;;11.57;2.45;;;19.70;84.00;;;;;;4972346;28;20369;-59
2022/07/10 07:12:08;;;;;;;7.15;1.33;;;20.20;83.80;;;;;;4974312;28;20030;-57
2022/07/10 07:14:34;;;;;;;6.20;1.40;;;20.00;83.00;;;;;;4973274;28;20531;-58
2022/07/10 07:17:05;;;;;;;6.82;1.50;;;19.90;85.20;;;;;;4972679;28;20038;-60
2022/07/10 07:19:32;;;;;;;11.77;1.58;;;20.30;84.30;;;;;;4977337;28;20042;-59
2022/07/10 07:24:43;;;;;;;6.97;1.95;;;19.60;84.90;;;;;;4976897;28;20038;-59
2022/07/10 07:27:09;;;;;;;7.53;1.60;;;19.40;85.80;;;;;;4976202;28;20495;-59
2022/07/10 07:29:35;;;;;;;8.45;1.50;;;19.20;85.80;;;;;;4977240;28;20050;-59
2022/07/10 07:32:00;;;;;;;8.82;1.88;;;20.20;84.60;;;;;;4972994;28;20093;-60
2022/07/10 07:34:26;;;;;;;3.75;1.35;;;21.80;79.80;;;;;;4972112;28;20035;-59
2022/07/10 07:36:51;;;;;;;4.97;1.35;;;23.50;76.00;;;;;;4977674;28;20054;-57
2022/07/10 07:39:17;;;;;;;10.43;1.65;;;24.80;71.40;;;;;;4971126;28;20471;-59
2022/07/10 07:41:43;;;;;;;6.60;1.30;;;24.50;71.90;;;;;;4972199;28;20122;-54
2022/07/10 07:44:08;;;;;;;4.10;1.38;;;24.20;70.60;;;;;;4978698;28;20058;-56
2022/07/10 07:46:34;;;;;;;8.18;1.35;;;23.30;73.00;;;;;;4976152;28;20497;-58
2022/07/10 07:49:00;;;;;;;5.88;1.25;;;22.80;72.70;;;;;;4974221;28;20042;-57
2022/07/10 07:51:25;;;;;;;3.88;1.40;;;21.60;77.80;;;;;;4983781;28;20034;-60
2022/07/10 07:53:51;;;;;;;7.03;1.67;;;20.80;80.50;;;;;;4974875;28;20042;-57
2022/07/10 07:56:17;;;;;;;8.27;1.98;;;19.80;83.40;;;;;;4980665;28;20019;-58
2022/07/10 07:58:42;;;;;;;6.28;2.03;;;19.50;84.60;;;;;;4976465;28;20054;-58
2022/07/10 08:01:08;;;;;;;9.48;1.65;;;19.10;86.00;;;;;;4977817;28;20027;-57
2022/07/10 08:03:33;;;;;;;3.65;1.60;;;18.90;87.30;;;;;;4975123;28;20023;-57
2022/07/10 08:06:00;;;;;;;5.50;1.60;;;19.50;87.70;;;;;;4976683;28;20042;-58
2022/07/10 08:08:26;;;;;;;7.35;1.85;;;20.00;85.00;;;;;;4975948;28;20023;-59
2022/07/10 08:10:52;;;;;;;9.20;1.85;;;20.10;83.50;;;;;;4974602;28;20067;-59
2022/07/10 08:13:18;;;;;;;4.90;1.13;;;20.40;83.80;;;;;;4969842;28;20058;-59
2022/07/10 08:15:44;;;;;;;4.88;1.38;;;21.20;83.00;;;;;;4973009;28;20031;-58
2022/07/10 08:18:09;;;;;;;6.50;2.40;;;22.60;77.40;;;;;;4971587;28;20032;-58
2022/07/10 08:20:35;;;;;;;6.35;1.85;;;22.80;77.80;;;;;;4973641;28;20058;-59
2022/07/10 08:23:01;;;;;;;5.80;1.55;;;22.60;78.50;;;;;;4976443;28;20540;-59
2022/07/10 08:25:29;;;;;;;6.03;1.75;;;22.00;78.80;;;;;;4976939;28;20023;-58
2022/07/10 08:28:00;;;;;;;5.05;1.50;;;21.50;80.50;;;;;;4976362;28;20126;-59
2022/07/10 08:30:26;;;;;;;4.30;1.20;;;21.10;81.70;;;;;;4978135;28;20034;-57
2022/07/10 08:32:52;;;;;;;2.92;1.20;;;20.90;81.20;;;;;;4978873;28;20039;-59
2022/07/10 08:35:17;;;;;;;3.95;1.73;;;20.50;82.30;;;;;;4976226;28;20042;-55
2022/07/10 08:37:45;;;;;;;7.60;2.00;;;19.90;85.00;;;;;;4977110;28;20054;-58
2022/07/10 08:40:13;;;;;;;4.00;1.48;;;19.60;86.60;;;;;;4974306;28;20034;-58
2022/07/10 08:42:40;;;;;;;6.20;2.03;;;19.40;87.70;;;;;;4977734;28;20106;-57
2022/07/10 08:45:06;;;;;;;6.70;2.05;;;19.20;88.10;;;;;;4980597;28;20030;-59
2022/07/10 08:47:36;;;;;;;7.13;2.45;;;19.10;88.40;;;;;;4975447;28;20062;-57
2022/07/10 08:50:02;;;;;;;7.80;1.42;;;19.00;88.60;;;;;;4977894;28;20493;-57
2022/07/10 08:52:42;;;;;;;11.15;2.47;;;18.90;90.00;;;;;;4974717;28;20512;-59
2022/07/10 08:55:11;;;;;;;8.45;1.50;;;18.90;90.00;;;;;;4982544;28;20105;-58
2022/07/10 08:57:39;;;;;;;9.65;1.88;;;18.70;90.70;;;;;;4966256;28;20055;-57
2022/07/10 09:00:05;;;;;;;5.28;1.70;;;18.70;90.70;;;;;;4973181;28;20113;-57
2022/07/10 09:02:31;;;;;;;3.45;1.63;;;18.80;90.50;;;;;;4974621;28;20038;-58
2022/07/10 09:04:56;;;;;;;6.90;2.00;;;18.50;90.80;;;;;;4971241;28;20482;-57
2022/07/10 09:07:23;;;;;;;7.95;1.80;;;18.30;91.80;;;;;;4970598;28;20034;-58
2022/07/10 09:09:57;;;;;;;9.07;2.72;;;18.10;92.70;;;;;;4971287;28;20034;-59
2022/07/10 09:12:24;;;;;;;4.68;1.38;;;18.40;92.30;;;;;;4969036;28;20038;-59
2022/07/10 09:14:51;;;;;;;8.27;2.05;;;18.40;92.20;;;;;;4968489;28;20027;-58
2022/07/10 09:17:17;;;;;;;8.93;2.10;;;18.70;92.30;;;;;;4973318;28;20035;-58
2022/07/10 09:19:44;;;;;;;8.70;1.80;;;18.70;91.80;;;;;;4971978;28;20061;-56
2022/07/10 09:22:11;;;;;;;6.40;1.58;;;18.80;91.90;;;;;;4968045;28;20082;-59
2022/07/10 09:24:44;;;;;;;7.22;2.03;;;19.00;91.50;;;;;;4971056;28;20026;-58
2022/07/10 09:27:14;;;;;;;7.28;2.25;;;19.20;91.50;;;;;;4973957;28;20046;-59
2022/07/10 09:29:57;;;;;;;7.90;2.03;;;19.60;90.90;;;;;;4972299;28;20039;-58
2022/07/10 09:32:23;;;;;;;6.97;1.98;;;19.80;91.00;;;;;;4975375;28;20042;-58
2022/07/10 09:36:04;;;;;;;9.27;2.20;;;20.40;91.30;;;;;;4974156;28;20167;-58
2022/07/10 09:37:41;;;;;;;5.63;1.63;;;20.90;89.00;;;;;;4960712;28;20035;-59
2022/07/10 09:40:07;;;;;;;7.35;2.33;;;21.30;86.30;;;;;;4988407;28;20038;-59
2022/07/10 09:42:38;;;;;;;2.97;2.05;;;21.50;85.30;;;;;;4972057;28;20026;-57
2022/07/10 09:45:12;;;;;;;7.60;1.70;;;21.40;85.80;;;;;;4972645;28;20031;-59
2022/07/10 09:47:42;;;;;;;5.00;1.60;;;21.40;86.40;;;;;;4975605;28;20030;-57
2022/07/10 09:50:22;;;;;;;3.35;1.33;;;22.00;84.40;;;;;;4971099;28;20026;-58
2022/07/10 09:52:59;;;;;;;3.72;1.45;;;22.40;84.80;;;;;;4974516;28;20046;-59
2022/07/10 09:55:29;;;;;;;5.40;1.95;;;22.20;83.30;;;;;;4971310;28;20038;-56
2022/07/10 09:58:05;;;;;;;5.07;1.95;;;21.90;84.10;;;;;;4973048;28;20035;-59
2022/07/10 10:00:37;;;;;;;6.15;1.90;;;21.60;85.90;;;;;;4968061;28;20041;-59
2022/07/10 10:03:07;;;;;;;4.13;1.35;;;21.00;86.80;;;;;;4973733;28;20030;-58
2022/07/10 10:05:37;;;;;;;7.80;2.03;;;21.10;87.60;;;;;;4972074;28;20034;-59
2022/07/10 10:08:18;;;;;;;3.67;1.70;;;21.10;88.00;;;;;;4977449;28;20033;-59
2022/07/10 10:10:49;;;;;;;8.40;1.50;;;21.10;87.40;;;;;;4972339;28;20043;-59
2022/07/10 10:13:19;;;;;;;4.10;1.73;;;21.00;87.60;;;;;;4972962;28;20029;-58
2022/07/10 10:15:50;;;;;;;2.88;1.52;;;20.70;87.70;;;;;;4969897;28;20035;-58
2022/07/10 10:18:21;;;;;;;2.60;1.70;;;20.00;89.80;;;;;;4970525;28;20039;-61
2022/07/10 10:20:48;;;;;;;6.93;2.45;;;19.70;91.40;;;;;;4976106;28;20110;-59
2022/07/10 10:23:17;;;;;;;4.88;2.30;;;19.60;91.80;;;;;;4973628;28;20031;-58
2022/07/10 10:25:44;;;;;;;6.90;1.77;;;19.80;91.40;;;;;;4973672;28;20580;-58
2022/07/10 10:28:11;;;;;;;2.53;1.55;;;20.00;91.00;;;;;;4975951;28;20054;-59
2022/07/10 10:30:39;;;;;;;5.88;1.90;;;20.00;91.60;;;;;;4971168;28;20026;-59
2022/07/10 10:33:42;;;;;;;4.07;1.70;;;19.40;91.60;;;;;;4973676;28;20058;-58
2022/07/10 10:36:09;;;;;;;4.80;1.80;;;19.40;92.40;;;;;;4968390;28;20066;-57
2022/07/10 10:38:58;;;;;;;2.35;1.60;;;19.20;92.60;;;;;;4967320;28;20058;-56
2022/07/10 10:41:24;;;;;;;4.65;2.10;;;19.20;93.00;;;;;;4969479;28;20057;-58
2022/07/10 10:44:16;;;;;;;3.13;1.80;;;19.00;93.20;;;;;;4970392;28;20469;-58
2022/07/10 10:46:54;;;;;;;2.08;1.88;;;18.70;93.90;;;;;;4972215;28;20489;-58
2022/07/10 10:49:25;;;;;;;2.80;1.98;;;18.80;94.40;;;;;;4970412;28;20121;-59
2022/07/10 10:51:56;;;;;;;2.92;1.80;;;19.00;94.00;;;;;;4970124;28;20042;-57
2022/07/10 10:54:21;;;;;;;7.90;2.20;;;19.20;93.70;;;;;;4969734;28;20493;-58
2022/07/10 10:57:13;;;;;;;4.90;2.25;;;18.90;94.60;;;;;;4969477;28;20023;-59
2022/07/10 10:59:47;;;;;;;5.40;2.40;;;18.60;95.10;;;;;;4970431;28;20046;-61
2022/07/10 11:02:30;;;;;;;5.82;2.28;;;18.60;95.50;;;;;;4967335;28;20027;-57
2022/07/10 11:05:11;;;;;;;4.00;2.45;;;18.30;95.60;;;;;;4967183;28;20042;-59
2022/07/10 11:08:35;;;;;;;4.20;2.30;;;18.30;96.30;;;;;;4972911;28;20022;-58
2022/07/10 11:11:00;;;;;;;3.23;2.20;;;18.20;97.60;;;;;;4929924;29;20121;-57
2022/07/10 11:13:29;;;;;;;3.67;2.55;;;18.20;97.70;;;;;;4929068;29;20666;-58
2022/07/10 11:15:57;;;;;;;12.32;2.85;;;18.00;97.60;;;;;;4952556;28;20046;-59
2022/07/10 11:18:25;;;;;;;6.80;2.85;;;18.20;96.90;;;;;;4969046;28;20474;-58
2022/07/10 11:20:55;;;;;;;12.98;4.72;;;18.20;97.80;;;;;;4969655;28;20448;-59
2022/07/10 11:23:26;;;;;;;4.00;2.70;;;18.50;97.80;;;;;;4974912;28;20648;-59
2022/07/10 11:26:10;;;;;;;2.92;2.63;;;18.60;97.80;;;;;;4983075;28;20085;-59
2022/07/10 11:28:41;;;;;;;5.45;2.97;;;18.90;96.50;;;;;;4978694;28;20023;-58
2022/07/10 11:31:06;;;;;;;3.03;2.38;;;19.20;96.10;;;;;;4978056;28;20408;-59
2022/07/10 11:33:43;;;;;;;7.05;2.67;;;19.10;95.90;;;;;;4978392;28;20023;-59
2022/07/10 11:36:14;;;;;;;4.80;2.60;;;18.90;96.20;;;;;;4977246;28;20042;-57
2022/07/10 11:38:42;;;;;;;4.63;2.90;;;18.70;96.90;;;;;;4971400;28;20026;-57
2022/07/10 11:41:19;;;;;;;10.55;3.53;;;18.50;97.10;;;;;;4985558;28;20046;-56
2022/07/10 11:43:52;;;;;;;5.15;3.33;;;18.40;98.00;;;;;;4971849;28;20078;-57
2022/07/10 11:46:21;;;;;;;5.95;3.00;;;18.50;98.60;;;;;;4978809;28;20468;-58
2022/07/10 11:48:48;;;;;;;5.72;3.28;;;18.70;97.90;;;;;;4977325;28;20027;-59
2022/07/10 11:51:37;;;;;;;3.35;2.95;;;18.80;97.50;;;;;;4978148;28;20050;-58
2022/07/10 11:54:05;;;;;;;5.50;3.45;;;18.80;97.20;;;;;;4969512;28;20047;-57
2022/07/10 11:56:33;;;;;;;7.45;4.07;;;18.30;98.50;;;;;;4973484;28;20030;-57
2022/07/10 11:58:58;;;;;;;4.40;3.63;;;18.40;98.30;;;;;;4976535;28;20065;-58
2022/07/10 12:01:24;;;;;;;7.32;4.38;;;18.30;98.20;;;;;;4976446;28;20477;-59
2022/07/10 12:04:02;;;;;;;7.95;4.32;;;18.10;98.50;;;;;;4970148;28;20903;-58
2022/07/10 12:06:29;;;;;;;8.05;4.20;;;17.90;99.20;;;;;;4974463;28;20027;-58
2022/07/10 12:08:55;;;;;;;7.25;4.32;;;17.70;99.80;;;;;;4974977;28;20041;-59
2022/07/10 12:11:22;;;;;;;9.43;4.57;;;17.80;99.90;;;;;;4974195;28;20109;-59
2022/07/10 12:13:51;;;;;;;6.85;5.15;;;17.60;99.90;;;;;;4976697;28;20037;-57
2022/07/10 12:16:17;;;;;;;6.28;4.20;;;17.70;99.90;;;;;;4977268;28;20034;-59
2022/07/10 12:18:43;;;;;;;9.30;4.72;;;17.70;99.90;;;;;;4977756;28;20560;-58
2022/07/10 12:21:10;;;;;;;5.80;4.53;;;17.60;99.90;;;;;;4976263;28;20436;-59
2022/07/10 12:23:39;;;;;;;6.43;4.28;;;17.80;99.90;;;;;;4978857;28;20030;-59
2022/07/10 12:26:08;;;;;;;9.77;4.85;;;17.90;99.90;;;;;;4978486;28;20027;-59
2022/07/10 12:28:52;;;;;;;11.65;4.63;;;18.00;99.90;;;;;;4978670;28;20047;-58
2022/07/10 12:31:28;;;;;;;7.93;4.57;;;18.10;99.90;;;;;;4977688;28;20031;-59
2022/07/10 12:34:02;;;;;;;9.80;4.65;;;18.20;99.90;;;;;;4977800;28;20019;-59
2022/07/10 12:36:52;;;;;;;12.55;4.72;;;18.60;99.90;;;;;;4974528;28;20034;-59
2022/07/10 12:41:56;;;;;;;8.63;4.35;;;18.40;99.90;;;;;;5008775;23;20050;-59
2022/07/10 12:44:32;;;;;;;11.10;4.88;;;18.20;99.90;;;;;;4992157;28;20037;-58
2022/07/10 12:47:02;;;;;;;5.85;4.53;;;18.20;99.90;;;;;;4989600;28;20484;-61
2022/07/10 12:49:28;;;;;;;6.15;4.18;;;18.20;99.90;;;;;;4994732;28;20110;-59
2022/07/10 12:51:53;;;;;;;8.73;4.90;;;18.00;99.90;;;;;;4993086;28;20113;-60
2022/07/10 12:54:38;;;;;;;7.35;4.22;;;18.00;99.90;;;;;;4993648;28;20030;-61
2022/07/10 12:57:07;;;;;;;6.70;4.50;;;18.00;99.90;;;;;;4994577;28;20026;-61
2022/07/10 12:59:34;;;;;;;14.00;5.15;;;18.00;99.90;;;;;;4994734;28;20034;-61